sensor_id;sensor_type;location;lat;lon;timestamp;P1;durP1;ratioP1;P2;durP2;ratioP2
13969;SDS011;7057;49.984;8.404;2024-02-14T00:00:07;5.63;;;3.47;;
13969;SDS011;7057;49.984;8.404;2024-02-14T00:02:37;4.10;;;3.33;;
13969;SDS011;7057;49.984;8.404;2024-02-14T00:05:05;3.70;;;3.23;;
13969;SDS011;7057;49.984;8.404;2024-02-14T00:07:34;4.37;;;3.57;;
13969;SDS011;7057;49.984;8.404;2024-02-14T00:10:03;4.30;;;3.30;;
13969;SDS011;7057;49.984;8.404;2024-02-14T00:12:31;4.70;;;3.40;;
13969;SDS011;7057;49.984;8.404;2024-02-14T00:14:59;4.27;;;3.53;;
13969;SDS011;7057;49.984;8.404;2024-02-14T00:17:28;6.20;;;3.63;;
13969;SDS011;7057;49.984;8.404;2024-02-14T00:19:56;6.23;;;3.73;;
13969;SDS011;7057;49.984;8.404;2024-02-14T00:22:23;4.87;;;4.00;;
13969;SDS011;7057;49.984;8.404;2024-02-14T00:24:52;6.70;;;4.10;;
13969;SDS011;7057;49.984;8.404;2024-02-14T00:27:19;6.17;;;3.90;;
13969;SDS011;7057;49.984;8.404;2024-02-14T00:29:47;4.23;;;3.83;;
13969;SDS011;7057;49.984;8.404;2024-02-14T00:32:14;5.27;;;3.97;;
13969;SDS011;7057;49.984;8.404;2024-02-14T00:34:42;4.87;;;3.67;;
13969;SDS011;7057;49.984;8.404;2024-02-14T00:37:10;6.70;;;4.00;;
13969;SDS011;7057;49.984;8.404;2024-02-14T00:39:37;4.90;;;3.60;;
13969;SDS011;7057;49.984;8.404;2024-02-14T00:42:06;5.77;;;4.00;;
13969;SDS011;7057;49.984;8.404;2024-02-14T00:44:34;6.47;;;4.43;;
13969;SDS011;7057;49.984;8.404;2024-02-14T00:47:01;5.97;;;4.33;;
13969;SDS011;7057;49.984;8.404;2024-02-14T00:49:29;5.27;;;4.07;;
13969;SDS011;7057;49.984;8.404;2024-02-14T00:51:57;5.93;;;4.40;;
13969;SDS011;7057;49.984;8.404;2024-02-14T00:54:24;5.57;;;4.30;;
13969;SDS011;7057;49.984;8.404;2024-02-14T00:56:52;5.77;;;4.13;;
13969;SDS011;7057;49.984;8.404;2024-02-14T00:59:21;5.60;;;4.70;;
13969;SDS011;7057;49.984;8.404;2024-02-14T01:01:48;6.13;;;4.50;;
13969;SDS011;7057;49.984;8.404;2024-02-14T01:04:16;7.77;;;4.67;;
13969;SDS011;7057;49.984;8.404;2024-02-14T01:06:44;8.30;;;5.10;;
13969;SDS011;7057;49.984;8.404;2024-02-14T01:09:11;7.10;;;4.93;;
13969;SDS011;7057;49.984;8.404;2024-02-14T01:11:39;6.07;;;5.00;;
13969;SDS011;7057;49.984;8.404;2024-02-14T01:14:06;6.90;;;5.00;;
13969;SDS011;7057;49.984;8.404;2024-02-14T01:16:41;8.97;;;5.43;;
13969;SDS011;7057;49.984;8.404;2024-02-14T01:19:08;7.17;;;5.30;;
13969;SDS011;7057;49.984;8.404;2024-02-14T01:21:36;8.23;;;5.63;;
13969;SDS011;7057;49.984;8.404;2024-02-14T01:24:04;7.47;;;5.90;;
13969;SDS011;7057;49.984;8.404;2024-02-14T01:26:33;8.77;;;5.87;;
13969;SDS011;7057;49.984;8.404;2024-02-14T01:29:00;9.33;;;5.60;;
13969;SDS011;7057;49.984;8.404;2024-02-14T01:31:28;8.00;;;5.73;;
13969;SDS011;7057;49.984;8.404;2024-02-14T01:33:57;6.70;;;5.33;;
13969;SDS011;7057;49.984;8.404;2024-02-14T01:36:28;10.33;;;5.70;;
13969;SDS011;7057;49.984;8.404;2024-02-14T01:38:55;8.77;;;6.23;;
13969;SDS011;7057;49.984;8.404;2024-02-14T01:41:23;7.90;;;5.83;;
13969;SDS011;7057;49.984;8.404;2024-02-14T01:43:50;7.23;;;5.90;;
13969;SDS011;7057;49.984;8.404;2024-02-14T01:46:18;7.30;;;5.77;;
13969;SDS011;7057;49.984;8.404;2024-02-14T01:48:45;10.33;;;6.43;;
13969;SDS011;7057;49.984;8.404;2024-02-14T01:51:15;8.50;;;6.20;;
13969;SDS011;7057;49.984;8.404;2024-02-14T01:53:44;9.13;;;6.80;;
13969;SDS011;7057;49.984;8.404;2024-02-14T01:56:12;7.60;;;6.40;;
13969;SDS011;7057;49.984;8.404;2024-02-14T01:58:41;7.70;;;6.43;;
13969;SDS011;7057;49.984;8.404;2024-02-14T02:01:09;7.77;;;5.70;;
13969;SDS011;7057;49.984;8.404;2024-02-14T02:03:38;7.63;;;6.03;;
13969;SDS011;7057;49.984;8.404;2024-02-14T02:06:05;12.23;;;6.37;;
13969;SDS011;7057;49.984;8.404;2024-02-14T02:08:34;7.87;;;6.27;;
13969;SDS011;7057;49.984;8.404;2024-02-14T02:11:02;9.93;;;6.93;;
13969;SDS011;7057;49.984;8.404;2024-02-14T02:13:31;8.87;;;6.50;;
13969;SDS011;7057;49.984;8.404;2024-02-14T02:15:58;10.00;;;6.77;;
13969;SDS011;7057;49.984;8.404;2024-02-14T02:18:30;11.00;;;6.10;;
13969;SDS011;7057;49.984;8.404;2024-02-14T02:20:57;8.67;;;6.57;;
13969;SDS011;7057;49.984;8.404;2024-02-14T02:23:26;9.77;;;6.57;;
13969;SDS011;7057;49.984;8.404;2024-02-14T02:25:53;9.63;;;6.57;;
13969;SDS011;7057;49.984;8.404;2024-02-14T02:28:21;10.60;;;6.70;;
13969;SDS011;7057;49.984;8.404;2024-02-14T02:30:49;10.50;;;5.70;;
13969;SDS011;7057;49.984;8.404;2024-02-14T02:33:18;7.33;;;6.33;;
13969;SDS011;7057;49.984;8.404;2024-02-14T02:35:47;9.10;;;6.43;;
13969;SDS011;7057;49.984;8.404;2024-02-14T02:38:15;7.77;;;6.20;;
13969;SDS011;7057;49.984;8.404;2024-02-14T02:40:44;10.03;;;6.30;;
13969;SDS011;7057;49.984;8.404;2024-02-14T02:43:11;8.33;;;6.27;;
13969;SDS011;7057;49.984;8.404;2024-02-14T02:45:39;7.77;;;5.93;;
13969;SDS011;7057;49.984;8.404;2024-02-14T02:48:07;9.13;;;6.47;;
13969;SDS011;7057;49.984;8.404;2024-02-14T02:50:35;8.60;;;6.20;;
13969;SDS011;7057;49.984;8.404;2024-02-14T02:53:02;9.60;;;5.93;;
13969;SDS011;7057;49.984;8.404;2024-02-14T02:55:30;9.83;;;6.30;;
13969;SDS011;7057;49.984;8.404;2024-02-14T02:57:59;9.27;;;6.60;;
13969;SDS011;7057;49.984;8.404;2024-02-14T03:00:27;7.70;;;5.80;;
13969;SDS011;7057;49.984;8.404;2024-02-14T03:02:54;7.57;;;5.83;;
13969;SDS011;7057;49.984;8.404;2024-02-14T03:05:22;10.43;;;5.93;;
13969;SDS011;7057;49.984;8.404;2024-02-14T03:07:49;9.00;;;6.00;;
13969;SDS011;7057;49.984;8.404;2024-02-14T03:10:18;8.07;;;6.00;;
13969;SDS011;7057;49.984;8.404;2024-02-14T03:12:46;7.87;;;5.83;;
13969;SDS011;7057;49.984;8.404;2024-02-14T03:15:15;8.60;;;5.70;;
13969;SDS011;7057;49.984;8.404;2024-02-14T03:17:43;6.10;;;5.23;;
13969;SDS011;7057;49.984;8.404;2024-02-14T03:20:11;8.20;;;5.60;;
13969;SDS011;7057;49.984;8.404;2024-02-14T03:22:39;7.63;;;6.00;;
13969;SDS011;7057;49.984;8.404;2024-02-14T03:25:11;8.10;;;5.80;;
13969;SDS011;7057;49.984;8.404;2024-02-14T03:27:39;8.03;;;6.10;;
13969;SDS011;7057;49.984;8.404;2024-02-14T03:30:07;8.67;;;5.83;;
13969;SDS011;7057;49.984;8.404;2024-02-14T03:32:36;8.13;;;5.70;;
13969;SDS011;7057;49.984;8.404;2024-02-14T03:35:03;6.40;;;5.43;;
13969;SDS011;7057;49.984;8.404;2024-02-14T03:37:31;8.50;;;6.03;;
13969;SDS011;7057;49.984;8.404;2024-02-14T03:39:59;6.87;;;5.53;;
13969;SDS011;7057;49.984;8.404;2024-02-14T03:42:29;8.23;;;6.20;;
13969;SDS011;7057;49.984;8.404;2024-02-14T03:44:56;8.03;;;6.20;;
13969;SDS011;7057;49.984;8.404;2024-02-14T03:47:28;11.13;;;6.43;;
13969;SDS011;7057;49.984;8.404;2024-02-14T03:49:58;8.87;;;6.07;;
13969;SDS011;7057;49.984;8.404;2024-02-14T03:52:25;9.20;;;6.50;;
13969;SDS011;7057;49.984;8.404;2024-02-14T03:54:53;10.57;;;6.00;;
13969;SDS011;7057;49.984;8.404;2024-02-14T03:57:20;10.63;;;6.10;;
13969;SDS011;7057;49.984;8.404;2024-02-14T03:59:48;7.30;;;5.67;;
13969;SDS011;7057;49.984;8.404;2024-02-14T04:02:15;8.73;;;6.00;;
13969;SDS011;7057;49.984;8.404;2024-02-14T04:04:42;9.20;;;5.97;;
13969;SDS011;7057;49.984;8.404;2024-02-14T04:07:13;7.33;;;5.90;;
13969;SDS011;7057;49.984;8.404;2024-02-14T04:09:40;9.27;;;5.97;;
13969;SDS011;7057;49.984;8.404;2024-02-14T04:12:08;7.00;;;5.77;;
13969;SDS011;7057;49.984;8.404;2024-02-14T04:14:37;8.00;;;6.30;;
13969;SDS011;7057;49.984;8.404;2024-02-14T04:17:04;7.73;;;6.20;;
13969;SDS011;7057;49.984;8.404;2024-02-14T04:19:33;9.83;;;6.10;;
13969;SDS011;7057;49.984;8.404;2024-02-14T04:22:00;10.97;;;6.20;;
13969;SDS011;7057;49.984;8.404;2024-02-14T04:24:29;7.73;;;6.27;;
13969;SDS011;7057;49.984;8.404;2024-02-14T04:26:57;8.03;;;6.43;;
13969;SDS011;7057;49.984;8.404;2024-02-14T04:29:24;9.67;;;6.13;;
13969;SDS011;7057;49.984;8.404;2024-02-14T04:31:53;8.10;;;6.60;;
13969;SDS011;7057;49.984;8.404;2024-02-14T04:34:21;8.10;;;5.97;;
13969;SDS011;7057;49.984;8.404;2024-02-14T04:36:48;10.63;;;6.63;;
13969;SDS011;7057;49.984;8.404;2024-02-14T04:39:16;9.20;;;7.00;;
13969;SDS011;7057;49.984;8.404;2024-02-14T04:41:45;11.07;;;6.77;;
13969;SDS011;7057;49.984;8.404;2024-02-14T04:44:15;7.73;;;6.50;;
13969;SDS011;7057;49.984;8.404;2024-02-14T04:46:42;7.47;;;6.63;;
13969;SDS011;7057;49.984;8.404;2024-02-14T04:49:10;8.97;;;6.87;;
13969;SDS011;7057;49.984;8.404;2024-02-14T04:51:40;11.30;;;6.63;;
13969;SDS011;7057;49.984;8.404;2024-02-14T04:54:07;9.63;;;6.20;;
13969;SDS011;7057;49.984;8.404;2024-02-14T04:56:35;11.93;;;6.83;;
13969;SDS011;7057;49.984;8.404;2024-02-14T04:59:04;8.53;;;6.50;;
13969;SDS011;7057;49.984;8.404;2024-02-14T05:01:31;8.13;;;6.30;;
13969;SDS011;7057;49.984;8.404;2024-02-14T05:03:59;10.03;;;6.57;;
13969;SDS011;7057;49.984;8.404;2024-02-14T05:06:26;10.13;;;6.90;;
13969;SDS011;7057;49.984;8.404;2024-02-14T05:08:53;8.20;;;6.17;;
13969;SDS011;7057;49.984;8.404;2024-02-14T05:11:21;10.73;;;6.30;;
13969;SDS011;7057;49.984;8.404;2024-02-14T05:13:48;10.43;;;6.17;;
13969;SDS011;7057;49.984;8.404;2024-02-14T05:16:18;7.73;;;6.37;;
13969;SDS011;7057;49.984;8.404;2024-02-14T05:18:46;7.73;;;5.80;;
13969;SDS011;7057;49.984;8.404;2024-02-14T05:21:14;8.70;;;6.03;;
13969;SDS011;7057;49.984;8.404;2024-02-14T05:23:42;9.37;;;5.80;;
13969;SDS011;7057;49.984;8.404;2024-02-14T05:26:09;10.07;;;6.43;;
13969;SDS011;7057;49.984;8.404;2024-02-14T05:28:37;7.90;;;6.00;;
13969;SDS011;7057;49.984;8.404;2024-02-14T05:31:04;7.97;;;6.07;;
13969;SDS011;7057;49.984;8.404;2024-02-14T05:33:34;9.90;;;6.07;;
13969;SDS011;7057;49.984;8.404;2024-02-14T05:36:01;8.47;;;5.50;;
13969;SDS011;7057;49.984;8.404;2024-02-14T05:38:30;10.07;;;6.00;;
13969;SDS011;7057;49.984;8.404;2024-02-14T05:40:59;8.43;;;5.57;;
13969;SDS011;7057;49.984;8.404;2024-02-14T05:43:26;12.77;;;6.10;;
13969;SDS011;7057;49.984;8.404;2024-02-14T05:45:54;8.83;;;5.50;;
13969;SDS011;7057;49.984;8.404;2024-02-14T05:48:21;8.67;;;5.30;;
13969;SDS011;7057;49.984;8.404;2024-02-14T05:50:50;7.50;;;5.40;;
13969;SDS011;7057;49.984;8.404;2024-02-14T05:53:18;7.57;;;5.70;;
13969;SDS011;7057;49.984;8.404;2024-02-14T05:55:45;9.30;;;5.27;;
13969;SDS011;7057;49.984;8.404;2024-02-14T05:58:13;9.47;;;5.60;;
13969;SDS011;7057;49.984;8.404;2024-02-14T06:00:41;8.40;;;5.43;;
13969;SDS011;7057;49.984;8.404;2024-02-14T06:03:08;8.57;;;5.43;;
13969;SDS011;7057;49.984;8.404;2024-02-14T06:05:36;8.13;;;5.40;;
13969;SDS011;7057;49.984;8.404;2024-02-14T06:08:05;8.83;;;5.30;;
13969;SDS011;7057;49.984;8.404;2024-02-14T06:10:33;7.50;;;5.23;;
13969;SDS011;7057;49.984;8.404;2024-02-14T06:13:00;7.93;;;5.73;;
13969;SDS011;7057;49.984;8.404;2024-02-14T06:15:28;8.40;;;5.40;;
13969;SDS011;7057;49.984;8.404;2024-02-14T06:17:55;7.87;;;5.57;;
13969;SDS011;7057;49.984;8.404;2024-02-14T06:20:23;10.10;;;5.87;;
13969;SDS011;7057;49.984;8.404;2024-02-14T06:22:51;6.77;;;5.10;;
13969;SDS011;7057;49.984;8.404;2024-02-14T06:25:21;8.03;;;5.63;;
13969;SDS011;7057;49.984;8.404;2024-02-14T06:27:48;7.47;;;5.50;;
13969;SDS011;7057;49.984;8.404;2024-02-14T06:30:16;8.83;;;5.67;;
13969;SDS011;7057;49.984;8.404;2024-02-14T06:32:43;9.37;;;5.70;;
13969;SDS011;7057;49.984;8.404;2024-02-14T06:35:11;8.20;;;5.50;;
13969;SDS011;7057;49.984;8.404;2024-02-14T06:37:40;7.13;;;6.07;;
13969;SDS011;7057;49.984;8.404;2024-02-14T06:40:08;9.40;;;5.40;;
13969;SDS011;7057;49.984;8.404;2024-02-14T06:42:37;7.00;;;5.40;;
13969;SDS011;7057;49.984;8.404;2024-02-14T06:45:05;9.07;;;5.47;;
13969;SDS011;7057;49.984;8.404;2024-02-14T06:47:33;6.67;;;5.43;;
13969;SDS011;7057;49.984;8.404;2024-02-14T06:50:00;6.77;;;4.77;;
13969;SDS011;7057;49.984;8.404;2024-02-14T06:52:28;12.53;;;7.67;;
13969;SDS011;7057;49.984;8.404;2024-02-14T06:54:55;10.47;;;7.50;;
13969;SDS011;7057;49.984;8.404;2024-02-14T06:57:23;8.60;;;5.30;;
13969;SDS011;7057;49.984;8.404;2024-02-14T06:59:51;10.43;;;5.30;;
13969;SDS011;7057;49.984;8.404;2024-02-14T07:02:19;8.47;;;5.10;;
13969;SDS011;7057;49.984;8.404;2024-02-14T07:04:47;6.43;;;5.07;;
13969;SDS011;7057;49.984;8.404;2024-02-14T07:07:16;8.17;;;4.93;;
13969;SDS011;7057;49.984;8.404;2024-02-14T07:09:43;7.20;;;4.87;;
13969;SDS011;7057;49.984;8.404;2024-02-14T07:12:11;7.90;;;4.83;;
13969;SDS011;7057;49.984;8.404;2024-02-14T07:14:38;6.33;;;4.70;;
13969;SDS011;7057;49.984;8.404;2024-02-14T07:17:07;7.43;;;4.33;;
13969;SDS011;7057;49.984;8.404;2024-02-14T07:19:34;7.53;;;4.80;;
13969;SDS011;7057;49.984;8.404;2024-02-14T07:22:04;7.37;;;4.67;;
13969;SDS011;7057;49.984;8.404;2024-02-14T07:24:31;8.30;;;4.57;;
13969;SDS011;7057;49.984;8.404;2024-02-14T07:26:59;9.60;;;4.20;;
13969;SDS011;7057;49.984;8.404;2024-02-14T07:29:26;9.80;;;4.60;;
13969;SDS011;7057;49.984;8.404;2024-02-14T07:31:53;8.23;;;4.40;;
13969;SDS011;7057;49.984;8.404;2024-02-14T07:34:25;6.60;;;4.07;;
13969;SDS011;7057;49.984;8.404;2024-02-14T07:36:52;9.60;;;4.37;;
13969;SDS011;7057;49.984;8.404;2024-02-14T07:39:20;6.83;;;4.00;;
13969;SDS011;7057;49.984;8.404;2024-02-14T07:41:47;7.20;;;4.37;;
13969;SDS011;7057;49.984;8.404;2024-02-14T07:44:15;5.77;;;3.67;;
13969;SDS011;7057;49.984;8.404;2024-02-14T07:46:42;7.63;;;4.30;;
13969;SDS011;7057;49.984;8.404;2024-02-14T07:49:10;8.43;;;4.10;;
13969;SDS011;7057;49.984;8.404;2024-02-14T07:51:39;6.30;;;4.00;;
13969;SDS011;7057;49.984;8.404;2024-02-14T07:54:06;8.43;;;4.20;;
13969;SDS011;7057;49.984;8.404;2024-02-14T07:56:34;7.57;;;3.80;;
13969;SDS011;7057;49.984;8.404;2024-02-14T07:59:01;6.03;;;3.93;;
13969;SDS011;7057;49.984;8.404;2024-02-14T08:01:30;5.77;;;3.87;;
13969;SDS011;7057;49.984;8.404;2024-02-14T08:03:58;5.30;;;3.70;;
13969;SDS011;7057;49.984;8.404;2024-02-14T08:06:26;6.97;;;3.60;;
13969;SDS011;7057;49.984;8.404;2024-02-14T08:08:54;6.97;;;3.80;;
13969;SDS011;7057;49.984;8.404;2024-02-14T08:11:27;6.50;;;3.60;;
13969;SDS011;7057;49.984;8.404;2024-02-14T08:13:55;4.80;;;3.37;;
13969;SDS011;7057;49.984;8.404;2024-02-14T08:16:23;5.70;;;3.60;;
13969;SDS011;7057;49.984;8.404;2024-02-14T08:18:50;7.80;;;3.30;;
13969;SDS011;7057;49.984;8.404;2024-02-14T08:21:24;12.17;;;3.87;;
13969;SDS011;7057;49.984;8.404;2024-02-14T08:23:52;6.80;;;3.33;;
13969;SDS011;7057;49.984;8.404;2024-02-14T08:26:21;5.40;;;3.33;;
13969;SDS011;7057;49.984;8.404;2024-02-14T08:28:49;5.97;;;3.20;;
13969;SDS011;7057;49.984;8.404;2024-02-14T08:31:17;6.13;;;2.80;;
13969;SDS011;7057;49.984;8.404;2024-02-14T08:33:44;3.77;;;3.10;;
13969;SDS011;7057;49.984;8.404;2024-02-14T08:36:12;5.70;;;3.20;;
13969;SDS011;7057;49.984;8.404;2024-02-14T08:38:39;4.70;;;3.03;;
13969;SDS011;7057;49.984;8.404;2024-02-14T08:41:07;4.83;;;3.20;;
13969;SDS011;7057;49.984;8.404;2024-02-14T08:43:36;5.77;;;4.10;;
13969;SDS011;7057;49.984;8.404;2024-02-14T08:46:03;5.53;;;3.30;;
13969;SDS011;7057;49.984;8.404;2024-02-14T08:48:36;5.20;;;3.30;;
13969;SDS011;7057;49.984;8.404;2024-02-14T08:51:07;4.07;;;3.17;;
13969;SDS011;7057;49.984;8.404;2024-02-14T08:53:35;5.20;;;3.20;;
13969;SDS011;7057;49.984;8.404;2024-02-14T08:56:02;5.07;;;3.17;;
13969;SDS011;7057;49.984;8.404;2024-02-14T08:58:30;6.13;;;3.40;;
13969;SDS011;7057;49.984;8.404;2024-02-14T09:00:59;6.90;;;3.93;;
13969;SDS011;7057;49.984;8.404;2024-02-14T09:03:26;4.77;;;3.17;;
13969;SDS011;7057;49.984;8.404;2024-02-14T09:05:56;6.13;;;3.70;;
13969;SDS011;7057;49.984;8.404;2024-02-14T09:08:23;5.80;;;3.60;;
13969;SDS011;7057;49.984;8.404;2024-02-14T09:10:51;6.73;;;3.70;;
13969;SDS011;7057;49.984;8.404;2024-02-14T09:13:20;6.20;;;3.50;;
13969;SDS011;7057;49.984;8.404;2024-02-14T09:15:47;6.70;;;3.80;;
13969;SDS011;7057;49.984;8.404;2024-02-14T09:18:17;6.07;;;3.80;;
13969;SDS011;7057;49.984;8.404;2024-02-14T09:20:44;4.57;;;2.80;;
13969;SDS011;7057;49.984;8.404;2024-02-14T09:23:12;4.13;;;2.90;;
13969;SDS011;7057;49.984;8.404;2024-02-14T09:25:44;6.33;;;3.47;;
13969;SDS011;7057;49.984;8.404;2024-02-14T09:28:12;6.07;;;3.40;;
13969;SDS011;7057;49.984;8.404;2024-02-14T09:30:40;4.93;;;3.40;;
13969;SDS011;7057;49.984;8.404;2024-02-14T09:33:08;4.50;;;3.40;;
13969;SDS011;7057;49.984;8.404;2024-02-14T09:35:37;4.83;;;3.60;;
13969;SDS011;7057;49.984;8.404;2024-02-14T09:38:09;4.87;;;3.63;;
13969;SDS011;7057;49.984;8.404;2024-02-14T09:40:38;5.33;;;3.37;;
13969;SDS011;7057;49.984;8.404;2024-02-14T09:43:05;4.97;;;3.10;;
13969;SDS011;7057;49.984;8.404;2024-02-14T09:45:37;5.20;;;3.00;;
13969;SDS011;7057;49.984;8.404;2024-02-14T09:48:06;6.33;;;3.47;;
13969;SDS011;7057;49.984;8.404;2024-02-14T09:50:34;5.70;;;3.47;;
13969;SDS011;7057;49.984;8.404;2024-02-14T09:53:03;5.50;;;3.23;;
13969;SDS011;7057;49.984;8.404;2024-02-14T09:55:31;7.13;;;3.77;;
13969;SDS011;7057;49.984;8.404;2024-02-14T09:57:58;6.03;;;3.80;;
13969;SDS011;7057;49.984;8.404;2024-02-14T10:00:30;4.40;;;2.87;;
13969;SDS011;7057;49.984;8.404;2024-02-14T10:02:58;6.07;;;3.43;;
13969;SDS011;7057;49.984;8.404;2024-02-14T10:05:26;5.23;;;3.40;;
13969;SDS011;7057;49.984;8.404;2024-02-14T10:07:54;7.27;;;3.77;;
13969;SDS011;7057;49.984;8.404;2024-02-14T10:10:25;7.10;;;3.40;;
13969;SDS011;7057;49.984;8.404;2024-02-14T10:12:54;6.53;;;3.70;;
13969;SDS011;7057;49.984;8.404;2024-02-14T10:15:21;5.47;;;3.63;;
13969;SDS011;7057;49.984;8.404;2024-02-14T10:17:48;5.43;;;3.30;;
13969;SDS011;7057;49.984;8.404;2024-02-14T10:20:17;6.73;;;3.83;;
13969;SDS011;7057;49.984;8.404;2024-02-14T10:22:44;5.43;;;3.20;;
13969;SDS011;7057;49.984;8.404;2024-02-14T10:25:12;5.87;;;3.13;;
13969;SDS011;7057;49.984;8.404;2024-02-14T10:27:41;6.57;;;3.63;;
13969;SDS011;7057;49.984;8.404;2024-02-14T10:30:09;5.13;;;3.30;;
13969;SDS011;7057;49.984;8.404;2024-02-14T10:32:37;5.90;;;3.10;;
13969;SDS011;7057;49.984;8.404;2024-02-14T10:35:05;4.93;;;3.10;;
13969;SDS011;7057;49.984;8.404;2024-02-14T10:37:34;4.80;;;2.87;;
13969;SDS011;7057;49.984;8.404;2024-02-14T10:40:02;3.80;;;2.23;;
13969;SDS011;7057;49.984;8.404;2024-02-14T10:42:30;3.73;;;2.40;;
13969;SDS011;7057;49.984;8.404;2024-02-14T10:44:59;5.30;;;2.40;;
13969;SDS011;7057;49.984;8.404;2024-02-14T10:47:29;2.37;;;1.97;;
13969;SDS011;7057;49.984;8.404;2024-02-14T10:49:57;3.17;;;2.20;;
13969;SDS011;7057;49.984;8.404;2024-02-14T10:52:28;3.73;;;2.40;;
13969;SDS011;7057;49.984;8.404;2024-02-14T10:54:58;3.00;;;2.30;;
13969;SDS011;7057;49.984;8.404;2024-02-14T10:57:26;4.07;;;2.10;;
13969;SDS011;7057;49.984;8.404;2024-02-14T10:59:54;2.60;;;2.00;;
13969;SDS011;7057;49.984;8.404;2024-02-14T11:02:24;3.20;;;1.90;;
13969;SDS011;7057;49.984;8.404;2024-02-14T11:04:55;3.00;;;2.20;;
13969;SDS011;7057;49.984;8.404;2024-02-14T11:07:23;2.23;;;2.00;;
13969;SDS011;7057;49.984;8.404;2024-02-14T11:09:59;4.53;;;2.27;;
13969;SDS011;7057;49.984;8.404;2024-02-14T11:12:31;2.43;;;1.83;;
13969;SDS011;7057;49.984;8.404;2024-02-14T11:15:00;3.83;;;2.00;;
13969;SDS011;7057;49.984;8.404;2024-02-14T11:17:33;2.83;;;2.17;;
13969;SDS011;7057;49.984;8.404;2024-02-14T11:20:10;2.43;;;2.13;;
13969;SDS011;7057;49.984;8.404;2024-02-14T11:22:38;2.57;;;1.90;;
13969;SDS011;7057;49.984;8.404;2024-02-14T11:25:06;2.40;;;1.77;;
13969;SDS011;7057;49.984;8.404;2024-02-14T11:27:33;3.53;;;2.10;;
13969;SDS011;7057;49.984;8.404;2024-02-14T11:30:01;4.30;;;2.10;;
13969;SDS011;7057;49.984;8.404;2024-02-14T11:32:28;3.80;;;2.00;;
13969;SDS011;7057;49.984;8.404;2024-02-14T11:34:57;3.20;;;2.20;;
13969;SDS011;7057;49.984;8.404;2024-02-14T11:37:28;3.43;;;2.30;;
13969;SDS011;7057;49.984;8.404;2024-02-14T11:39:56;3.03;;;2.03;;
13969;SDS011;7057;49.984;8.404;2024-02-14T11:42:24;3.30;;;2.20;;
13969;SDS011;7057;49.984;8.404;2024-02-14T11:44:52;3.57;;;2.40;;
13969;SDS011;7057;49.984;8.404;2024-02-14T11:47:21;2.67;;;2.00;;
13969;SDS011;7057;49.984;8.404;2024-02-14T11:49:49;3.10;;;2.43;;
13969;SDS011;7057;49.984;8.404;2024-02-14T11:52:19;2.43;;;2.00;;
13969;SDS011;7057;49.984;8.404;2024-02-14T11:54:46;2.33;;;2.00;;
13969;SDS011;7057;49.984;8.404;2024-02-14T11:57:16;3.13;;;2.63;;
13969;SDS011;7057;49.984;8.404;2024-02-14T11:59:44;3.80;;;2.70;;
13969;SDS011;7057;49.984;8.404;2024-02-14T12:02:13;4.17;;;2.60;;
13969;SDS011;7057;49.984;8.404;2024-02-14T12:04:41;4.00;;;2.60;;
13969;SDS011;7057;49.984;8.404;2024-02-14T12:07:10;3.80;;;2.70;;
13969;SDS011;7057;49.984;8.404;2024-02-14T12:09:39;3.70;;;2.77;;
13969;SDS011;7057;49.984;8.404;2024-02-14T12:12:07;4.03;;;3.00;;
13969;SDS011;7057;49.984;8.404;2024-02-14T12:14:35;3.70;;;2.97;;
13969;SDS011;7057;49.984;8.404;2024-02-14T12:17:03;3.70;;;2.80;;
13969;SDS011;7057;49.984;8.404;2024-02-14T12:19:33;5.57;;;2.97;;
13969;SDS011;7057;49.984;8.404;2024-02-14T12:22:08;4.33;;;3.33;;
13969;SDS011;7057;49.984;8.404;2024-02-14T12:24:37;3.33;;;2.47;;
13969;SDS011;7057;49.984;8.404;2024-02-14T12:27:06;4.77;;;2.93;;
13969;SDS011;7057;49.984;8.404;2024-02-14T12:29:34;3.37;;;2.73;;
13969;SDS011;7057;49.984;8.404;2024-02-14T12:32:05;3.83;;;2.77;;
13969;SDS011;7057;49.984;8.404;2024-02-14T12:34:32;4.43;;;2.60;;
13969;SDS011;7057;49.984;8.404;2024-02-14T12:37:01;4.90;;;3.00;;
13969;SDS011;7057;49.984;8.404;2024-02-14T12:39:28;3.80;;;2.70;;
13969;SDS011;7057;49.984;8.404;2024-02-14T12:41:56;5.10;;;2.80;;
13969;SDS011;7057;49.984;8.404;2024-02-14T12:44:25;3.10;;;2.27;;
13969;SDS011;7057;49.984;8.404;2024-02-14T12:46:53;4.87;;;2.70;;
13969;SDS011;7057;49.984;8.404;2024-02-14T12:49:21;5.37;;;3.20;;
13969;SDS011;7057;49.984;8.404;2024-02-14T12:51:51;5.17;;;3.23;;
13969;SDS011;7057;49.984;8.404;2024-02-14T12:54:18;4.67;;;2.97;;
13969;SDS011;7057;49.984;8.404;2024-02-14T12:56:46;5.30;;;2.80;;
13969;SDS011;7057;49.984;8.404;2024-02-14T12:59:14;4.23;;;3.27;;
13969;SDS011;7057;49.984;8.404;2024-02-14T13:01:45;6.20;;;3.07;;
13969;SDS011;7057;49.984;8.404;2024-02-14T13:04:13;4.47;;;2.90;;
13969;SDS011;7057;49.984;8.404;2024-02-14T13:06:41;3.93;;;3.13;;
13969;SDS011;7057;49.984;8.404;2024-02-14T13:09:09;4.37;;;3.00;;
13969;SDS011;7057;49.984;8.404;2024-02-14T13:11:37;5.03;;;3.43;;
13969;SDS011;7057;49.984;8.404;2024-02-14T13:14:04;4.10;;;3.23;;
13969;SDS011;7057;49.984;8.404;2024-02-14T13:16:31;5.57;;;3.30;;
13969;SDS011;7057;49.984;8.404;2024-02-14T13:19:00;5.10;;;3.23;;
13969;SDS011;7057;49.984;8.404;2024-02-14T13:21:28;6.53;;;3.60;;
13969;SDS011;7057;49.984;8.404;2024-02-14T13:23:56;5.47;;;3.90;;
13969;SDS011;7057;49.984;8.404;2024-02-14T13:26:24;5.30;;;3.73;;
13969;SDS011;7057;49.984;8.404;2024-02-14T13:28:53;4.87;;;3.60;;
13969;SDS011;7057;49.984;8.404;2024-02-14T13:31:21;5.97;;;3.60;;
13969;SDS011;7057;49.984;8.404;2024-02-14T13:33:48;4.37;;;3.97;;
13969;SDS011;7057;49.984;8.404;2024-02-14T13:36:17;5.53;;;4.10;;
13969;SDS011;7057;49.984;8.404;2024-02-14T13:38:45;4.93;;;3.97;;
13969;SDS011;7057;49.984;8.404;2024-02-14T13:41:12;4.63;;;4.07;;
13969;SDS011;7057;49.984;8.404;2024-02-14T13:43:40;6.20;;;4.30;;
13969;SDS011;7057;49.984;8.404;2024-02-14T13:46:08;5.53;;;4.40;;
13969;SDS011;7057;49.984;8.404;2024-02-14T13:48:36;7.73;;;4.53;;
13969;SDS011;7057;49.984;8.404;2024-02-14T13:51:03;5.97;;;3.70;;
13969;SDS011;7057;49.984;8.404;2024-02-14T13:53:32;4.80;;;4.30;;
13969;SDS011;7057;49.984;8.404;2024-02-14T13:56:00;4.50;;;3.77;;
13969;SDS011;7057;49.984;8.404;2024-02-14T13:58:27;4.33;;;3.77;;
13969;SDS011;7057;49.984;8.404;2024-02-14T14:00:55;4.47;;;3.50;;
13969;SDS011;7057;49.984;8.404;2024-02-14T14:03:22;6.00;;;3.37;;
13969;SDS011;7057;49.984;8.404;2024-02-14T14:05:49;5.07;;;3.70;;
13969;SDS011;7057;49.984;8.404;2024-02-14T14:08:18;4.87;;;3.80;;
13969;SDS011;7057;49.984;8.404;2024-02-14T14:10:47;4.90;;;3.80;;
13969;SDS011;7057;49.984;8.404;2024-02-14T14:13:14;3.80;;;3.40;;
13969;SDS011;7057;49.984;8.404;2024-02-14T14:15:42;5.20;;;3.67;;
13969;SDS011;7057;49.984;8.404;2024-02-14T14:18:09;4.50;;;3.70;;
13969;SDS011;7057;49.984;8.404;2024-02-14T14:20:37;4.73;;;3.93;;
13969;SDS011;7057;49.984;8.404;2024-02-14T14:23:04;4.63;;;3.53;;
13969;SDS011;7057;49.984;8.404;2024-02-14T14:25:33;4.17;;;3.27;;
13969;SDS011;7057;49.984;8.404;2024-02-14T14:28:04;4.00;;;3.60;;
13969;SDS011;7057;49.984;8.404;2024-02-14T14:30:32;4.77;;;3.60;;
13969;SDS011;7057;49.984;8.404;2024-02-14T14:33:00;4.37;;;3.43;;
13969;SDS011;7057;49.984;8.404;2024-02-14T14:35:28;4.07;;;3.70;;
13969;SDS011;7057;49.984;8.404;2024-02-14T14:37:58;5.50;;;3.80;;
13969;SDS011;7057;49.984;8.404;2024-02-14T14:40:26;5.37;;;3.87;;
13969;SDS011;7057;49.984;8.404;2024-02-14T14:42:53;6.50;;;4.47;;
13969;SDS011;7057;49.984;8.404;2024-02-14T14:45:22;9.67;;;4.77;;
13969;SDS011;7057;49.984;8.404;2024-02-14T14:47:50;5.53;;;4.20;;
13969;SDS011;7057;49.984;8.404;2024-02-14T14:50:17;5.03;;;3.70;;
13969;SDS011;7057;49.984;8.404;2024-02-14T14:52:46;6.63;;;4.20;;
13969;SDS011;7057;49.984;8.404;2024-02-14T14:55:14;4.97;;;4.03;;
13969;SDS011;7057;49.984;8.404;2024-02-14T14:57:41;6.47;;;4.50;;
13969;SDS011;7057;49.984;8.404;2024-02-14T15:00:09;7.83;;;4.50;;
13969;SDS011;7057;49.984;8.404;2024-02-14T15:02:39;6.33;;;4.70;;
13969;SDS011;7057;49.984;8.404;2024-02-14T15:05:08;5.97;;;4.47;;